Time;durP1;ratioP1;P1;durP2;ratioP2;P2;SDS_P1;SDS_P2;PMS_P1;PMS_P2;Temp;Humidity;BMP_temperature;BMP_pressure;BME280_temperature;BME280_humidity;BME280_pressure;Samples;Min_cycle;Max_cycle;Signal;HPM_P1;HPM_P2
2021/08/28 00:01:44;;;;;;;10.88;3.50;;;;;;;13.65;79.09;101116.88;5024893;28;20049;-76
2021/08/28 00:04:09;;;;;;;10.60;3.15;;;;;;;13.67;78.68;101110.97;5007241;28;20036;-76
2021/08/28 00:06:35;;;;;;;8.95;3.20;;;;;;;13.62;78.77;101115.53;5025482;28;20021;-76
2021/08/28 00:09:00;;;;;;;10.43;3.55;;;;;;;13.61;79.35;101115.81;5022156;28;20051;-77
2021/08/28 00:11:26;;;;;;;12.80;3.83;;;;;;;13.51;79.07;101118.72;5040188;28;20032;-76
2021/08/28 00:13:52;;;;;;;10.38;3.65;;;;;;;13.54;79.63;101107.81;5008062;28;20111;-76
2021/08/28 00:16:17;;;;;;;16.85;4.13;;;;;;;13.50;79.89;101117.91;5023130;28;20041;-76
2021/08/28 00:18:43;;;;;;;15.57;5.18;;;;;;;13.50;79.05;101117.06;5055312;28;20059;-76
2021/08/28 00:21:09;;;;;;;9.32;4.07;;;;;;;13.45;79.01;101120.75;5026861;28;20028;-76
2021/08/28 00:23:34;;;;;;;9.32;3.88;;;;;;;13.44;79.79;101121.06;5014058;28;20056;-76
2021/08/28 00:26:00;;;;;;;11.80;3.90;;;;;;;13.44;79.69;101121.06;5050057;28;20028;-76
2021/08/28 00:28:25;;;;;;;8.80;3.65;;;;;;;13.45;79.03;101117.13;5057444;28;20040;-76
2021/08/28 00:30:51;;;;;;;11.45;3.78;;;;;;;13.39;78.99;101121.94;5056882;28;20044;-76
2021/08/28 00:33:16;;;;;;;8.57;3.53;;;;;;;13.40;79.71;101120.84;5058245;28;20021;-76
2021/08/28 00:35:42;;;;;;;10.63;3.95;;;;;;;13.34;79.61;101113.63;5025049;28;20118;-76
2021/08/28 00:38:08;;;;;;;10.27;3.90;;;;;;;13.32;79.25;101110.34;5007926;28;20036;-76
2021/08/28 00:40:34;;;;;;;12.70;3.90;;;;;;;13.30;79.85;101107.00;5024299;28;20032;-76
2021/08/28 00:42:59;;;;;;;12.82;3.80;;;;;;;13.28;79.93;101109.25;5054943;28;20037;-76
2021/08/28 00:45:26;;;;;;;6.90;3.05;;;;;;;13.27;79.63;101107.59;5055158;28;20032;-76
2021/08/28 00:48:05;;;;;;;8.13;3.17;;;;;;;13.25;79.07;101112.63;5022741;28;20089;-76
2021/08/28 00:50:33;;;;;;;10.57;3.60;;;;;;;13.24;78.67;101109.00;5055751;28;20112;-76
2021/08/28 00:52:59;;;;;;;10.73;4.20;;;;;;;13.19;80.02;101109.88;5033457;28;20449;-76
2021/08/28 00:55:25;;;;;;;7.95;3.67;;;;;;;13.15;78.71;101108.81;5023208;28;20029;-76
2021/08/28 00:57:51;;;;;;;11.68;3.40;;;;;;;13.11;79.07;101104.94;5042075;28;20048;-76
2021/08/28 01:00:17;;;;;;;9.95;4.10;;;;;;;13.07;79.37;101103.06;5039370;28;20470;-76
2021/08/28 01:02:44;;;;;;;10.00;3.63;;;;;;;13.06;79.75;101099.44;5024409;28;20142;-76
2021/08/28 01:05:15;;;;;;;11.60;3.75;;;;;;;13.00;79.95;101103.41;5062618;28;20034;-76
2021/08/28 01:07:58;;;;;;;10.60;3.85;;;;;;;13.00;80.46;101105.38;5030847;28;20120;-76
2021/08/28 01:10:27;;;;;;;12.23;4.25;;;;;;;13.00;80.90;101108.97;5054551;28;20032;-76
2021/08/28 01:12:53;;;;;;;9.98;3.70;;;;;;;12.99;80.01;101104.53;5003711;28;20021;-76
2021/08/28 01:15:21;;;;;;;10.20;3.40;;;;;;;12.94;79.60;101104.59;5045197;28;20033;-76
2021/08/28 01:17:47;;;;;;;9.15;3.80;;;;;;;12.91;79.66;101111.59;5029173;28;20116;-76
2021/08/28 01:20:39;;;;;;;13.18;3.88;;;;;;;12.87;80.00;101106.91;5022255;28;20437;-76
2021/08/28 01:23:06;;;;;;;15.60;4.70;;;;;;;12.84;81.49;101118.63;5035287;28;20074;-76
2021/08/28 01:25:31;;;;;;;14.45;4.10;;;;;;;12.84;81.58;101121.41;5023916;28;20041;-76
2021/08/28 01:28:06;;;;;;;8.45;3.75;;;;;;;12.81;80.59;101117.25;5028757;28;20037;-76
2021/08/28 01:30:33;;;;;;;11.85;3.45;;;;;;;12.77;80.70;101129.31;5032376;28;20087;-76
2021/08/28 01:32:59;;;;;;;9.40;3.40;;;;;;;12.74;80.45;101123.19;5057172;28;20025;-76
2021/08/28 01:35:24;;;;;;;11.10;3.78;;;;;;;12.74;80.87;101117.63;5039755;28;20032;-76
2021/08/28 01:37:50;;;;;;;12.60;4.25;;;;;;;12.76;80.73;101117.34;5020078;28;20029;-76
2021/08/28 01:40:16;;;;;;;10.13;3.60;;;;;;;12.74;81.04;101116.81;5050786;28;20056;-76
2021/08/28 01:42:42;;;;;;;12.30;4.35;;;;;;;12.72;80.91;101119.88;5002831;28;20541;-76
2021/08/28 01:45:11;;;;;;;11.18;3.53;;;;;;;12.71;80.65;101120.19;5030527;28;20045;-76
2021/08/28 01:47:38;;;;;;;11.32;3.92;;;;;;;12.70;80.86;101126.84;5003119;28;20044;-76
2021/08/28 01:50:05;;;;;;;12.60;4.57;;;;;;;12.67;81.20;101133.84;5023258;28;20036;-76
2021/08/28 01:52:30;;;;;;;8.98;3.90;;;;;;;12.68;80.99;101129.94;5021421;28;20032;-75
2021/08/28 01:54:57;;;;;;;10.90;4.20;;;;;;;12.67;81.35;101128.28;5022790;28;20032;-76
2021/08/28 01:57:22;;;;;;;9.45;3.50;;;;;;;12.66;81.58;101129.41;5006268;28;20055;-76
2021/08/28 01:59:48;;;;;;;9.07;3.63;;;;;;;12.64;81.37;101126.06;5022088;28;20371;-75
2021/08/28 02:02:13;;;;;;;12.73;4.20;;;;;;;12.62;81.72;101125.56;5006666;28;20034;-76
2021/08/28 02:04:39;;;;;;;10.75;3.72;;;;;;;12.59;81.13;101126.16;5049634;28;20032;-76
2021/08/28 02:07:11;;;;;;;12.15;4.43;;;;;;;12.62;81.47;101133.91;5054456;28;20424;-75
2021/08/28 02:09:52;;;;;;;12.30;4.20;;;;;;;12.55;80.84;101130.63;5053628;28;20033;-76
2021/08/28 02:12:37;;;;;;;9.90;3.38;;;;;;;12.63;81.23;101127.22;5055492;28;20036;-76
2021/08/28 02:15:09;;;;;;;9.32;3.47;;;;;;;12.61;81.44;101134.19;5054885;28;20107;-76
2021/08/28 02:17:58;;;;;;;6.80;3.15;;;;;;;12.59;81.06;101131.72;5055358;28;20044;-75
2021/08/28 02:20:25;;;;;;;11.23;4.40;;;;;;;12.56;81.31;101137.84;5016966;28;20040;-76
2021/08/28 02:22:51;;;;;;;8.80;3.45;;;;;;;12.53;80.38;101130.91;5048325;28;20029;-76
2021/08/28 02:25:37;;;;;;;10.98;3.63;;;;;;;12.52;80.64;101132.03;5021040;28;20543;-76
2021/08/28 02:28:04;;;;;;;11.02;3.22;;;;;;;12.47;80.04;101129.28;5039925;28;20032;-76
2021/08/28 02:30:30;;;;;;;8.55;3.33;;;;;;;12.51;80.28;101126.78;5021297;28;20029;-76
2021/08/28 02:32:56;;;;;;;8.85;3.55;;;;;;;12.45;80.38;101139.06;5038803;28;20358;-76
2021/08/28 02:35:21;;;;;;;8.82;3.83;;;;;;;12.47;80.76;101134.03;5021423;28;20135;-76
2021/08/28 02:37:47;;;;;;;7.65;3.40;;;;;;;12.45;80.44;101126.00;5017937;28;20150;-76
2021/08/28 02:40:13;;;;;;;10.45;3.67;;;;;;;12.46;80.42;101132.38;5053595;28;20082;-76
2021/08/28 02:42:39;;;;;;;10.30;3.58;;;;;;;12.40;80.55;101128.81;5017650;28;20041;-76
2021/08/28 02:45:06;;;;;;;9.88;3.28;;;;;;;12.38;80.38;101133.00;5043158;28;20366;-76
2021/08/28 02:47:31;;;;;;;8.60;3.60;;;;;;;12.37;80.63;101134.09;5005049;28;20028;-76
2021/08/28 02:49:57;;;;;;;12.15;3.63;;;;;;;12.31;80.82;101136.09;5067309;28;20064;-76
2021/08/28 02:52:23;;;;;;;11.30;3.72;;;;;;;12.28;80.96;101137.50;5004853;28;20029;-76
2021/08/28 02:54:49;;;;;;;10.68;3.70;;;;;;;12.25;81.15;101132.53;5022019;28;20032;-76
2021/08/28 02:57:15;;;;;;;10.32;3.90;;;;;;;12.26;81.19;101145.34;5017720;28;20060;-76
2021/08/28 02:59:40;;;;;;;10.00;3.58;;;;;;;12.28;81.61;101143.09;5056739;28;20028;-75
2021/08/28 03:02:06;;;;;;;12.43;4.00;;;;;;;12.26;81.30;101145.34;5001873;28;20057;-76
2021/08/28 03:04:31;;;;;;;12.65;4.15;;;;;;;12.22;81.33;101138.69;5004084;28;20044;-76
2021/08/28 03:06:57;;;;;;;13.15;3.70;;;;;;;12.17;81.03;101140.69;5053450;28;20036;-76
2021/08/28 03:09:22;;;;;;;10.73;3.63;;;;;;;12.18;81.31;101136.78;5053975;28;20044;-76
2021/08/28 03:11:48;;;;;;;13.32;3.88;;;;;;;12.19;81.37;101139.25;5032475;28;20025;-76
2021/08/28 03:14:14;;;;;;;10.02;3.95;;;;;;;12.20;81.40;101134.53;5020469;28;20060;-76
2021/08/28 03:16:41;;;;;;;11.52;4.13;;;;;;;12.18;81.92;101132.03;5058805;28;20507;-76
2021/08/28 03:19:07;;;;;;;9.40;3.55;;;;;;;12.18;82.16;101132.03;5061065;28;20033;-76
2021/08/28 03:21:32;;;;;;;11.35;4.43;;;;;;;12.16;81.67;101139.03;5023105;28;20038;-75
2021/08/28 03:23:58;;;;;;;12.27;4.22;;;;;;;12.12;81.81;101130.44;5025157;28;20063;-75
2021/08/28 03:26:24;;;;;;;10.60;3.72;;;;;;;12.08;82.19;101134.88;5022447;28;20028;-76
2021/08/28 03:28:51;;;;;;;10.32;4.00;;;;;;;12.09;82.69;101136.56;5041271;28;20034;-76
2021/08/28 03:31:16;;;;;;;13.02;4.57;;;;;;;12.10;82.41;101131.84;5017419;28;20034;-76
2021/08/28 03:33:43;;;;;;;15.93;4.68;;;;;;;12.07;83.13;101136.03;5066053;28;20029;-76
2021/08/28 03:36:09;;;;;;;14.20;4.90;;;;;;;11.99;84.44;101136.63;5025543;28;20029;-76
2021/08/28 03:38:35;;;;;;;13.23;4.70;;;;;;;12.05;84.31;101138.25;5035146;28;20040;-76
2021/08/28 03:41:00;;;;;;;12.70;4.32;;;;;;;12.00;84.23;101132.72;5012780;28;20386;-76
2021/08/28 03:43:26;;;;;;;18.55;4.72;;;;;;;11.99;84.64;101139.41;5025232;28;20029;-75
2021/08/28 03:45:51;;;;;;;14.35;4.78;;;;;;;11.99;84.27;101140.25;5039536;28;20075;-75
2021/08/28 03:48:20;;;;;;;17.10;5.53;;;;;;;11.96;85.87;101140.81;5038113;28;20100;-76
2021/08/28 03:50:45;;;;;;;11.55;4.20;;;;;;;11.99;83.60;101139.41;5047009;28;20046;-75
2021/08/28 03:53:11;;;;;;;13.25;3.72;;;;;;;11.99;84.07;101133.84;5051721;28;20550;-75
2021/08/28 03:55:36;;;;;;;9.25;3.88;;;;;;;11.99;83.40;101140.25;5009624;28;20024;-75
2021/08/28 03:58:02;;;;;;;14.60;4.53;;;;;;;12.00;84.33;101141.06;5024534;28;20037;-76
2021/08/28 04:00:28;;;;;;;11.43;3.95;;;;;;;11.97;84.18;101142.47;5000936;28;20034;-76
2021/08/28 04:02:54;;;;;;;10.52;4.45;;;;;;;11.96;84.75;101137.22;5057003;28;20032;-76
2021/08/28 04:05:19;;;;;;;12.52;4.00;;;;;;;11.97;84.15;101144.44;5046659;28;20390;-76
2021/08/28 04:07:45;;;;;;;13.18;4.28;;;;;;;11.99;82.70;101140.25;5053005;28;20515;-76
2021/08/28 04:10:11;;;;;;;10.13;4.25;;;;;;;11.99;83.11;101142.19;5032163;28;20052;-76
2021/08/28 04:12:36;;;;;;;12.07;4.55;;;;;;;11.98;82.70;101143.28;5055200;28;20551;-76
2021/08/28 04:15:03;;;;;;;10.70;3.50;;;;;;;11.97;82.13;101144.44;5040673;28;20032;-75
2021/08/28 04:17:28;;;;;;;12.23;3.88;;;;;;;11.97;82.97;101136.06;5057796;28;20037;-76
2021/08/28 04:19:54;;;;;;;9.73;3.78;;;;;;;11.96;82.88;101140.00;5007101;28;20025;-76
2021/08/28 04:22:19;;;;;;;11.00;3.85;;;;;;;11.95;82.64;101139.16;5022925;28;20036;-76
2021/08/28 04:24:45;;;;;;;11.93;3.83;;;;;;;11.92;82.42;101142.50;5057507;28;20032;-75
2021/08/28 04:27:10;;;;;;;10.75;3.97;;;;;;;11.91;82.35;101140.03;5038393;28;20032;-75
2021/08/28 04:29:36;;;;;;;10.82;4.22;;;;;;;11.94;82.38;101142.22;5054499;28;20513;-76
2021/08/28 04:32:01;;;;;;;8.90;3.65;;;;;;;11.90;82.31;101149.50;5053465;28;20393;-76
2021/08/28 04:34:27;;;;;;;11.68;4.43;;;;;;;11.89;82.56;101148.66;5007182;28;20525;-76
2021/08/28 04:36:52;;;;;;;9.23;3.92;;;;;;;11.87;82.09;101148.13;5010132;28;20051;-76
2021/08/28 04:39:20;;;;;;;11.88;3.83;;;;;;;11.85;82.18;101144.75;5035779;28;20034;-75
2021/08/28 04:41:45;;;;;;;9.25;3.83;;;;;;;11.83;82.54;101156.16;5016913;28;20041;-75
2021/08/28 04:44:11;;;;;;;9.05;3.72;;;;;;;11.78;82.71;101150.66;5055857;28;20056;-75
2021/08/28 04:46:36;;;;;;;12.73;3.92;;;;;;;11.79;81.78;101145.91;5053063;28;20033;-75
2021/08/28 04:49:02;;;;;;;11.50;4.00;;;;;;;11.80;82.40;101153.13;5056089;28;20029;-76
2021/08/28 04:51:27;;;;;;;12.00;3.80;;;;;;;11.79;82.57;101155.09;5024229;28;20029;-76
2021/08/28 04:53:53;;;;;;;9.35;3.75;;;;;;;11.77;82.73;101148.13;5050957;28;20104;-75
2021/08/28 04:56:18;;;;;;;10.35;3.88;;;;;;;11.77;82.35;101160.09;5056304;28;20045;-75
2021/08/28 04:58:44;;;;;;;10.88;4.03;;;;;;;11.72;82.72;101157.34;5056955;28;20040;-75
2021/08/28 05:01:10;;;;;;;10.20;3.88;;;;;;;11.68;82.36;101150.69;5038209;28;20053;-75
2021/08/28 05:03:35;;;;;;;12.32;3.97;;;;;;;11.74;82.66;101160.66;5040180;28;20033;-76
2021/08/28 05:06:02;;;;;;;13.02;5.00;;;;;;;11.66;82.86;101158.47;5005968;28;20033;-75
2021/08/28 05:08:27;;;;;;;11.73;4.47;;;;;;;11.66;83.35;101164.03;5036961;28;20033;-75
2021/08/28 05:10:53;;;;;;;11.23;4.07;;;;;;;11.66;83.15;101163.22;5045930;28;20319;-75
2021/08/28 05:13:18;;;;;;;12.48;3.95;;;;;;;11.63;83.00;101159.88;5022840;28;20033;-76
2021/08/28 05:15:44;;;;;;;9.82;3.80;;;;;;;11.64;83.12;101160.72;5037604;28;20028;-76
2021/08/28 05:18:10;;;;;;;10.13;4.00;;;;;;;11.61;83.18;101166.84;5078368;28;20033;-76
2021/08/28 05:20:35;;;;;;;10.07;4.03;;;;;;;11.64;83.02;101171.84;5036888;28;20041;-76
2021/08/28 05:23:01;;;;;;;9.40;4.28;;;;;;;11.61;83.30;101177.97;5022595;28;20033;-76
2021/08/28 05:25:26;;;;;;;10.98;3.90;;;;;;;11.62;82.36;101163.78;5054158;28;20025;-76
2021/08/28 05:27:53;;;;;;;10.35;3.88;;;;;;;11.61;82.81;101181.59;5049030;28;20045;-76
2021/08/28 05:30:18;;;;;;;8.57;4.05;;;;;;;11.60;82.96;101187.44;5050429;28;20747;-75
2021/08/28 05:32:44;;;;;;;9.55;4.10;;;;;;;11.58;82.95;101184.94;5045135;28;20024;-75
2021/08/28 05:35:10;;;;;;;9.63;3.88;;;;;;;11.58;83.26;101187.72;5036154;28;20036;-76
2021/08/28 05:37:35;;;;;;;10.18;3.53;;;;;;;11.56;82.68;101189.97;5023693;28;20058;-76
2021/08/28 05:40:01;;;;;;;12.32;4.47;;;;;;;11.59;82.70;101197.75;5055991;28;20449;-75
2021/08/28 05:42:26;;;;;;;11.60;3.45;;;;;;;11.61;82.59;101201.06;5052530;28;20036;-75
2021/08/28 05:44:52;;;;;;;8.15;3.40;;;;;;;11.61;82.92;101195.50;5057451;28;20574;-75
2021/08/28 05:47:19;;;;;;;12.50;4.57;;;;;;;11.66;83.33;101197.44;5043470;28;20033;-75
2021/08/28 05:49:45;;;;;;;9.88;4.30;;;;;;;11.68;83.57;101198.00;5064230;28;20322;-76
2021/08/28 05:52:10;;;;;;;7.72;3.42;;;;;;;11.71;83.07;101194.63;5037347;28;20024;-76
2021/08/28 05:54:36;;;;;;;9.60;4.00;;;;;;;11.77;84.25;101201.84;5023290;28;20045;-76
2021/08/28 05:57:01;;;;;;;10.98;4.18;;;;;;;11.81;84.27;101200.16;5023132;28;20381;-76
2021/08/28 05:59:27;;;;;;;11.75;4.43;;;;;;;11.87;85.93;101203.78;5036817;28;20057;-76
2021/08/28 06:01:53;;;;;;;7.68;3.80;;;;;;;11.93;85.61;101205.41;5031270;28;20040;-76
2021/08/28 06:04:18;;;;;;;9.75;4.07;;;;;;;12.01;85.37;101209.56;5014776;28;20025;-75
2021/08/28 06:06:44;;;;;;;13.25;4.82;;;;;;;12.10;87.27;101207.00;5002921;28;20112;-76
2021/08/28 06:09:09;;;;;;;8.90;4.45;;;;;;;12.17;88.08;101211.13;5036967;28;20025;-75
2021/08/28 06:11:35;;;;;;;11.68;5.10;;;;;;;12.29;91.14;101225.53;5013447;28;20029;-75
2021/08/28 06:14:00;;;;;;;12.57;5.10;;;;;;;12.39;90.93;101226.59;5055250;28;20017;-76
2021/08/28 06:16:26;;;;;;;14.43;5.28;;;;;;;12.53;91.51;101216.44;5038968;28;20028;-75
2021/08/28 06:18:51;;;;;;;12.18;4.85;;;;;;;12.64;90.73;101229.19;5038982;28;20410;-75
2021/08/28 06:21:19;;;;;;;13.38;5.72;;;;;;;12.78;90.62;101228.53;5004850;28;20389;-76
2021/08/28 06:23:44;;;;;;;10.77;5.03;;;;;;;12.91;91.70;101233.44;5021518;28;20027;-76
2021/08/28 06:26:10;;;;;;;14.35;4.63;;;;;;;13.03;89.25;101230.25;5021749;28;20029;-76
2021/08/28 06:28:35;;;;;;;14.00;5.22;;;;;;;13.16;89.09;101238.78;5037064;28;20028;-76
2021/08/28 06:31:00;;;;;;;11.95;4.35;;;;;;;13.30;89.33;101243.69;5037863;28;20025;-76
2021/08/28 06:33:26;;;;;;;10.73;3.88;;;;;;;13.45;87.98;101237.94;5020335;28;20030;-76
2021/08/28 06:35:51;;;;;;;12.65;4.10;;;;;;;13.57;86.10;101235.59;5020163;28;20036;-71
2021/08/28 06:38:17;;;;;;;15.27;4.35;;;;;;;13.72;82.59;101233.75;5004846;28;20041;-75
2021/08/28 06:40:42;;;;;;;9.13;3.33;;;;;;;13.85;83.65;101233.84;5036903;28;20036;-74
2021/08/28 06:43:08;;;;;;;7.38;2.97;;;;;;;14.01;81.98;101242.88;5037207;28;20144;-75
2021/08/28 06:45:34;;;;;;;12.32;4.15;;;;;;;14.15;83.48;101244.91;5020208;28;20508;-74
2021/08/28 06:47:59;;;;;;;7.32;3.00;;;;;;;14.29;81.71;101240.22;5038722;28;20427;-75
2021/08/28 06:50:24;;;;;;;10.98;4.10;;;;;;;14.42;84.34;101245.06;5017687;28;20032;-75
2021/08/28 06:52:50;;;;;;;16.15;4.40;;;;;;;14.52;84.02;101250.56;5019133;28;20036;-76
2021/08/28 06:55:15;;;;;;;9.98;4.45;;;;;;;14.66;84.29;101249.78;5034482;28;20032;-76
2021/08/28 06:57:41;;;;;;;10.25;4.20;;;;;;;14.75;84.18;101253.56;5018498;28;20485;-76
2021/08/28 07:00:07;;;;;;;14.18;3.83;;;;;;;14.90;83.34;101250.50;5021505;28;20033;-75
2021/08/28 07:02:33;;;;;;;11.88;3.97;;;;;;;15.05;83.92;101246.63;5039428;28;20072;-75
2021/08/28 07:04:59;;;;;;;18.08;4.47;;;;;;;15.18;83.06;101248.63;5026580;28;20041;-75
2021/08/28 07:07:25;;;;;;;12.88;4.40;;;;;;;15.31;82.38;101244.19;4995455;28;20116;-75
2021/08/28 07:09:51;;;;;;;14.23;3.88;;;;;;;15.50;81.12;101248.88;5016517;28;20033;-70
2021/08/28 07:12:16;;;;;;;9.75;3.47;;;;;;;15.64;80.66;101255.31;5011531;28;20024;-70
2021/08/28 07:14:43;;;;;;;14.77;5.30;;;;;;;15.81;79.90;101249.97;5038117;28;20504;-75
2021/08/28 07:17:09;;;;;;;12.43;3.70;;;;;;;15.93;80.47;101243.81;5049632;28;20029;-77
2021/08/28 07:19:35;;;;;;;14.75;4.47;;;;;;;16.02;80.56;101243.94;5016738;28;20025;-75
2021/08/28 07:22:00;;;;;;;14.70;4.30;;;;;;;16.16;80.03;101247.56;5001855;28;20117;-75
2021/08/28 07:24:26;;;;;;;13.90;4.32;;;;;;;16.34;80.59;101245.75;5013452;28;20025;-75
2021/08/28 07:26:51;;;;;;;13.20;3.55;;;;;;;16.49;79.30;101238.94;5039120;28;20603;-75
2021/08/28 07:29:17;;;;;;;14.30;5.07;;;;;;;16.57;80.22;101246.59;5039341;28;20057;-74
2021/08/28 07:31:42;;;;;;;10.35;3.90;;;;;;;16.73;79.35;101245.09;5047530;28;20025;-75
2021/08/28 07:34:08;;;;;;;14.73;4.45;;;;;;;16.87;78.68;101255.47;5046187;28;20044;-75
2021/08/28 07:36:33;;;;;;;12.75;4.30;;;;;;;16.93;78.16;101259.78;5004618;28;20040;-75
2021/08/28 07:38:59;;;;;;;11.75;3.85;;;;;;;17.10;77.92;101254.28;5045567;28;20036;-75
2021/08/28 07:41:24;;;;;;;13.80;3.97;;;;;;;17.15;77.82;101251.38;5051011;28;20469;-74
2021/08/28 07:43:50;;;;;;;14.88;3.92;;;;;;;17.27;77.21;101253.56;5032939;28;20037;-74
2021/08/28 07:46:16;;;;;;;15.77;4.30;;;;;;;17.37;76.48;101253.31;4999600;28;20035;-75
2021/08/28 07:48:42;;;;;;;14.27;3.75;;;;;;;17.53;76.55;101252.91;5015239;28;20478;-75
2021/08/28 07:51:07;;;;;;;9.93;3.60;;;;;;;17.73;75.63;101245.88;5016645;28;20025;-75
2021/08/28 07:53:33;;;;;;;8.45;3.58;;;;;;;17.94;75.22;101248.94;5034771;28;20385;-75
2021/08/28 07:55:58;;;;;;;9.07;3.40;;;;;;;17.99;75.06;101252.44;5018943;28;20033;-74
2021/08/28 07:58:24;;;;;;;11.40;3.65;;;;;;;18.19;74.18;101252.97;5000247;28;20429;-75
2021/08/28 08:00:49;;;;;;;13.65;3.92;;;;;;;18.34;74.14;101251.69;5013307;28;20034;-75
2021/08/28 08:03:15;;;;;;;14.30;3.60;;;;;;;18.42;71.94;101248.88;5010006;28;20038;-75
2021/08/28 08:05:42;;;;;;;12.32;2.97;;;;;;;18.50;72.46;101256.50;5013462;28;20026;-75
2021/08/28 08:08:07;;;;;;;12.98;3.88;;;;;;;18.53;71.66;101250.22;5019526;28;20029;-75
2021/08/28 08:10:33;;;;;;;16.50;3.85;;;;;;;18.62;71.92;101255.84;5019295;28;20029;-78
2021/08/28 08:12:59;;;;;;;10.48;2.95;;;;;;;18.62;71.09;101257.84;5001111;28;20031;-74
2021/08/28 08:15:24;;;;;;;14.95;3.97;;;;;;;18.80;70.83;101258.69;5012366;28;20034;-74
2021/08/28 08:17:50;;;;;;;13.73;3.13;;;;;;;19.02;70.53;101254.88;5037200;28;20029;-79
2021/08/28 08:20:15;;;;;;;17.65;3.90;;;;;;;19.07;69.59;101260.31;5047160;28;20044;-72
2021/08/28 08:22:41;;;;;;;12.23;3.00;;;;;;;19.07;68.96;101258.31;5020336;28;20040;-73
2021/08/28 08:25:07;;;;;;;14.00;3.30;;;;;;;19.27;70.51;101258.78;5049473;28;20033;-72
2021/08/28 08:27:33;;;;;;;9.85;2.20;;;;;;;19.26;68.12;101260.78;5029493;28;20039;-72
2021/08/28 08:29:58;;;;;;;13.40;3.00;;;;;;;19.40;68.02;101255.78;5018577;28;20036;-73
2021/08/28 08:32:24;;;;;;;11.90;2.80;;;;;;;19.56;67.99;101261.69;5024199;28;20424;-73
2021/08/28 08:34:53;;;;;;;15.95;3.30;;;;;;;19.69;68.06;101259.84;5031064;28;20068;-73
2021/08/28 08:37:18;;;;;;;15.15;3.00;;;;;;;19.62;67.55;101267.97;5037852;28;20036;-73
2021/08/28 08:39:44;;;;;;;12.45;2.95;;;;;;;19.74;67.84;101264.47;5049588;28;20041;-73
2021/08/28 08:42:09;;;;;;;8.75;2.65;;;;;;;19.86;68.19;101261.75;5053641;28;20037;-73
2021/08/28 08:44:35;;;;;;;13.70;2.83;;;;;;;19.90;67.39;101259.09;5057222;28;20029;-73
2021/08/28 08:47:01;;;;;;;9.50;2.90;;;;;;;19.93;67.51;101261.25;5037175;28;20068;-73
2021/08/28 08:49:26;;;;;;;9.77;2.40;;;;;;;19.99;67.38;101259.88;5052025;28;20395;-73
2021/08/28 08:51:52;;;;;;;14.43;3.17;;;;;;;19.95;66.05;101265.38;5052996;28;20366;-73
2021/08/28 08:54:19;;;;;;;12.90;2.60;;;;;;;20.04;65.29;101265.31;5019613;28;20541;-72
2021/08/28 08:56:45;;;;;;;12.02;2.58;;;;;;;20.09;65.43;101262.31;5037452;28;20104;-72
2021/08/28 08:59:10;;;;;;;12.70;2.40;;;;;;;20.20;65.04;101259.94;5020767;28;20021;-72
2021/08/28 09:01:36;;;;;;;9.13;2.42;;;;;;;20.22;65.37;101257.56;5015814;28;20053;-72
2021/08/28 09:04:01;;;;;;;11.32;2.47;;;;;;;20.20;64.19;101259.94;5003660;28;20029;-72
2021/08/28 09:06:27;;;;;;;11.88;2.40;;;;;;;20.25;64.11;101268.16;5017516;28;20033;-72
2021/08/28 09:08:52;;;;;;;10.95;2.30;;;;;;;20.22;63.64;101264.03;5028078;28;20025;-72
2021/08/28 09:11:31;;;;;;;10.57;2.40;;;;;;;20.14;62.16;101267.72;5045138;28;20025;-72
2021/08/28 09:14:19;;;;;;;9.43;1.90;;;;;;;20.13;62.53;101273.72;5013337;28;20493;-73
2021/08/28 09:16:46;;;;;;;10.57;2.25;;;;;;;20.10;63.18;101263.94;5032482;28;20512;-73
2021/08/28 09:19:11;;;;;;;10.85;2.05;;;;;;;20.19;62.43;101269.53;5037262;28;20033;-72
2021/08/28 09:21:38;;;;;;;8.13;1.92;;;;;;;20.27;63.21;101263.84;5018205;28;20512;-73
2021/08/28 09:24:05;;;;;;;10.48;2.40;;;;;;;20.39;62.39;101265.09;5006361;28;20473;-72
2021/08/28 09:26:35;;;;;;;10.93;1.92;;;;;;;20.48;61.00;101266.69;5034671;28;20508;-72
2021/08/28 09:29:02;;;;;;;16.50;2.75;;;;;;;20.54;60.87;101267.34;5045059;28;20036;-73
2021/08/28 09:31:47;;;;;;;9.20;2.30;;;;;;;20.65;61.10;101260.13;5041928;28;20033;-79
2021/08/28 09:34:17;;;;;;;10.75;2.33;;;;;;;20.71;60.30;101270.03;5011186;28;20037;-79
2021/08/28 09:36:43;;;;;;;11.93;2.33;;;;;;;20.72;60.01;101260.38;5050787;28;20090;-81
2021/08/28 09:39:09;;;;;;;7.90;1.92;;;;;;;20.92;60.10;101260.72;5019714;28;20025;-80
2021/08/28 09:41:36;;;;;;;7.85;1.60;;;;;;;20.92;60.32;101264.38;5009878;28;20084;-75
2021/08/28 09:44:08;;;;;;;12.80;2.50;;;;;;;20.94;60.89;101262.00;5049910;28;20033;-75
2021/08/28 09:46:33;;;;;;;9.47;2.20;;;;;;;20.73;59.23;101261.22;5021157;28;20428;-76
2021/08/28 09:49:00;;;;;;;7.85;1.90;;;;;;;20.58;59.65;101267.47;5018147;28;20083;-75
2021/08/28 09:51:26;;;;;;;6.13;1.38;;;;;;;20.44;59.64;101268.53;5033752;28;20032;-78
2021/08/28 09:54:01;;;;;;;11.10;2.30;;;;;;;20.35;59.96;101264.13;5003044;28;20117;-75
2021/08/28 09:56:29;;;;;;;12.07;1.98;;;;;;;20.35;60.51;101270.59;5043431;28;20083;-75
2021/08/28 09:58:55;;;;;;;12.75;2.20;;;;;;;20.27;61.50;101263.84;5029825;28;20092;-75
2021/08/28 10:01:21;;;;;;;10.32;1.80;;;;;;;20.31;61.48;101250.72;5047427;28;20089;-75
2021/08/28 10:03:58;;;;;;;8.15;1.92;;;;;;;20.22;60.40;101264.03;5050584;28;20075;-75
2021/08/28 10:06:24;;;;;;;8.60;2.33;;;;;;;20.36;60.93;101251.69;5046360;28;20039;-70
2021/08/28 10:08:51;;;;;;;8.82;2.20;;;;;;;20.37;61.37;101257.00;5040790;28;20111;-71
2021/08/28 10:11:18;;;;;;;10.27;2.03;;;;;;;20.44;60.10;101254.44;5039870;28;20119;-70
2021/08/28 10:13:43;;;;;;;10.57;2.97;;;;;;;20.57;61.35;101255.38;5030949;28;20025;-70
2021/08/28 10:16:09;;;;;;;12.65;2.10;;;;;;;20.76;62.41;101254.91;5050993;28;20432;-70
2021/08/28 10:18:34;;;;;;;13.80;2.67;;;;;;;20.89;59.62;101250.09;5051203;28;20040;-70
2021/08/28 10:21:00;;;;;;;9.93;2.08;;;;;;;20.97;58.74;101252.03;5042516;28;20116;-71
2021/08/28 10:23:26;;;;;;;8.00;2.20;;;;;;;20.88;58.53;101259.75;5035112;28;20422;-71
2021/08/28 10:25:52;;;;;;;9.07;2.15;;;;;;;20.81;57.55;101265.13;5050051;28;20444;-70
2021/08/28 10:28:20;;;;;;;9.40;2.17;;;;;;;20.75;57.34;101253.22;5016268;28;20025;-70
2021/08/28 10:30:46;;;;;;;11.23;2.13;;;;;;;20.67;60.27;101257.78;5031412;28;20037;-70
2021/08/28 10:33:12;;;;;;;8.75;2.10;;;;;;;20.70;59.24;101247.81;5032779;28;20029;-70
2021/08/28 10:35:37;;;;;;;9.55;2.33;;;;;;;20.62;59.48;101248.72;5009490;28;20397;-71
2021/08/28 10:38:03;;;;;;;8.07;1.92;;;;;;;20.66;60.64;101244.84;5019703;28;20037;-70
2021/08/28 10:40:32;;;;;;;10.43;2.20;;;;;;;20.73;61.23;101236.66;5015385;28;20029;-70
2021/08/28 10:43:03;;;;;;;11.32;2.47;;;;;;;20.75;60.74;101244.75;5017442;28;20408;-70
2021/08/28 10:45:32;;;;;;;8.35;2.13;;;;;;;20.66;60.05;101239.19;5005195;28;20039;-70
2021/08/28 10:47:59;;;;;;;8.57;2.05;;;;;;;20.65;59.83;101248.84;5048980;28;20039;-70
2021/08/28 10:50:25;;;;;;;14.52;2.38;;;;;;;20.65;60.15;101243.19;5027749;28;20729;-70
2021/08/28 10:52:51;;;;;;;12.90;2.50;;;;;;;20.64;61.45;101241.53;5031570;28;20025;-71
2021/08/28 10:55:16;;;;;;;12.73;2.25;;;;;;;20.60;59.55;101242.56;5013751;28;20374;-74
2021/08/28 10:57:42;;;;;;;8.65;1.95;;;;;;;20.71;60.41;101229.69;5021017;28;20039;-71
2021/08/28 11:00:16;;;;;;;9.73;2.17;;;;;;;20.91;60.79;101237.31;5048959;28;20036;-71
2021/08/28 11:02:58;;;;;;;8.75;1.85;;;;;;;20.93;60.10;101231.31;5013686;28;20402;-72
2021/08/28 11:05:24;;;;;;;9.52;2.28;;;;;;;21.06;58.55;101224.56;5018728;28;20085;-72
2021/08/28 11:07:49;;;;;;;10.10;1.92;;;;;;;21.20;58.20;101236.34;5025286;28;20517;-72
2021/08/28 11:10:16;;;;;;;8.48;2.30;;;;;;;21.29;57.53;101239.09;5046987;28;20025;-71
2021/08/28 11:12:49;;;;;;;10.80;2.03;;;;;;;21.39;56.26;101232.19;5023826;28;20025;-72
2021/08/28 11:15:24;;;;;;;8.95;1.80;;;;;;;21.66;56.67;101229.88;5024795;28;20038;-72
2021/08/28 11:17:50;;;;;;;9.38;1.80;;;;;;;21.76;54.55;101223.75;5050026;28;20500;-72